sensor_id;sensor_type;location;lat;lon;timestamp;P1;durP1;ratioP1;P2;durP2;ratioP2
77854;SDS011;67046;50.088;14.336;2023-03-01T00:00:14;42.00;;;22.80;;
77854;SDS011;67046;50.088;14.336;2023-03-01T00:01:08;39.60;;;21.40;;
77854;SDS011;67046;50.088;14.336;2023-03-01T00:01:42;34.90;;;19.70;;
77854;SDS011;67046;50.088;14.336;2023-03-01T00:02:14;36.40;;;21.40;;
77854;SDS011;67046;50.088;14.336;2023-03-01T00:02:45;34.20;;;19.50;;
77854;SDS011;67046;50.088;14.336;2023-03-01T00:03:17;35.60;;;20.60;;
77854;SDS011;67046;50.088;14.336;2023-03-01T00:03:50;37.80;;;20.80;;
77854;SDS011;67046;50.088;14.336;2023-03-01T00:04:22;43.80;;;23.90;;
77854;SDS011;67046;50.088;14.336;2023-03-01T00:04:54;40.60;;;23.20;;
77854;SDS011;67046;50.088;14.336;2023-03-01T00:05:26;40.80;;;24.00;;
77854;SDS011;67046;50.088;14.336;2023-03-01T00:05:58;38.80;;;22.10;;
77854;SDS011;67046;50.088;14.336;2023-03-01T00:06:30;37.20;;;22.10;;
77854;SDS011;67046;50.088;14.336;2023-03-01T00:07:02;37.70;;;23.10;;
77854;SDS011;67046;50.088;14.336;2023-03-01T00:07:34;40.30;;;22.20;;
77854;SDS011;67046;50.088;14.336;2023-03-01T00:08:06;37.40;;;22.20;;
77854;SDS011;67046;50.088;14.336;2023-03-01T00:08:38;36.50;;;21.30;;
77854;SDS011;67046;50.088;14.336;2023-03-01T00:09:11;36.30;;;21.30;;
77854;SDS011;67046;50.088;14.336;2023-03-01T00:09:43;38.10;;;22.00;;
77854;SDS011;67046;50.088;14.336;2023-03-01T00:10:17;38.20;;;21.00;;
77854;SDS011;67046;50.088;14.336;2023-03-01T00:10:50;34.90;;;21.50;;
77854;SDS011;67046;50.088;14.336;2023-03-01T00:11:36;39.10;;;21.00;;
77854;SDS011;67046;50.088;14.336;2023-03-01T00:12:08;35.60;;;21.40;;
77854;SDS011;67046;50.088;14.336;2023-03-01T00:13:12;35.00;;;17.80;;
77854;SDS011;67046;50.088;14.336;2023-03-01T00:13:45;35.20;;;20.30;;
77854;SDS011;67046;50.088;14.336;2023-03-01T00:14:19;34.60;;;19.30;;
77854;SDS011;67046;50.088;14.336;2023-03-01T00:15:23;33.40;;;18.40;;
77854;SDS011;67046;50.088;14.336;2023-03-01T00:15:55;29.60;;;18.30;;
77854;SDS011;67046;50.088;14.336;2023-03-01T00:16:29;32.30;;;18.30;;
77854;SDS011;67046;50.088;14.336;2023-03-01T00:17:04;33.20;;;18.10;;
77854;SDS011;67046;50.088;14.336;2023-03-01T00:17:37;34.30;;;19.10;;
77854;SDS011;67046;50.088;14.336;2023-03-01T00:18:09;35.60;;;20.20;;
77854;SDS011;67046;50.088;14.336;2023-03-01T00:18:41;32.30;;;19.60;;
77854;SDS011;67046;50.088;14.336;2023-03-01T00:19:18;35.60;;;18.50;;
77854;SDS011;67046;50.088;14.336;2023-03-01T00:19:50;36.80;;;18.30;;
77854;SDS011;67046;50.088;14.336;2023-03-01T00:20:23;33.60;;;19.10;;
77854;SDS011;67046;50.088;14.336;2023-03-01T00:20:55;32.80;;;17.90;;
77854;SDS011;67046;50.088;14.336;2023-03-01T00:21:27;34.90;;;19.40;;
77854;SDS011;67046;50.088;14.336;2023-03-01T00:22:00;33.40;;;18.70;;
77854;SDS011;67046;50.088;14.336;2023-03-01T00:22:32;29.30;;;18.40;;
77854;SDS011;67046;50.088;14.336;2023-03-01T00:23:03;31.40;;;17.60;;
77854;SDS011;67046;50.088;14.336;2023-03-01T00:23:36;30.90;;;18.00;;
77854;SDS011;67046;50.088;14.336;2023-03-01T00:24:09;32.40;;;19.20;;
77854;SDS011;67046;50.088;14.336;2023-03-01T00:24:41;32.10;;;18.60;;
77854;SDS011;67046;50.088;14.336;2023-03-01T00:25:13;29.10;;;17.10;;
77854;SDS011;67046;50.088;14.336;2023-03-01T00:25:45;30.00;;;17.60;;
77854;SDS011;67046;50.088;14.336;2023-03-01T00:26:18;31.90;;;18.90;;
77854;SDS011;67046;50.088;14.336;2023-03-01T00:26:54;30.80;;;17.90;;
77854;SDS011;67046;50.088;14.336;2023-03-01T00:27:27;30.30;;;17.80;;
77854;SDS011;67046;50.088;14.336;2023-03-01T00:27:59;31.50;;;17.90;;
77854;SDS011;67046;50.088;14.336;2023-03-01T00:28:31;31.70;;;17.40;;
77854;SDS011;67046;50.088;14.336;2023-03-01T00:29:03;31.90;;;17.80;;
77854;SDS011;67046;50.088;14.336;2023-03-01T00:29:35;30.30;;;17.10;;
77854;SDS011;67046;50.088;14.336;2023-03-01T00:30:07;27.70;;;17.20;;
77854;SDS011;67046;50.088;14.336;2023-03-01T00:30:40;26.10;;;16.30;;
77854;SDS011;67046;50.088;14.336;2023-03-01T00:31:15;30.40;;;18.70;;
77854;SDS011;67046;50.088;14.336;2023-03-01T00:31:49;29.50;;;17.10;;
77854;SDS011;67046;50.088;14.336;2023-03-01T00:32:53;27.20;;;16.40;;
77854;SDS011;67046;50.088;14.336;2023-03-01T00:33:25;29.60;;;16.00;;
77854;SDS011;67046;50.088;14.336;2023-03-01T00:33:58;29.00;;;16.50;;
77854;SDS011;67046;50.088;14.336;2023-03-01T00:34:32;28.20;;;17.30;;
77854;SDS011;67046;50.088;14.336;2023-03-01T00:35:04;29.50;;;16.80;;
77854;SDS011;67046;50.088;14.336;2023-03-01T00:36:09;30.60;;;17.40;;
77854;SDS011;67046;50.088;14.336;2023-03-01T00:36:42;29.60;;;16.70;;
77854;SDS011;67046;50.088;14.336;2023-03-01T00:37:14;29.10;;;17.60;;
77854;SDS011;67046;50.088;14.336;2023-03-01T00:37:46;27.80;;;17.00;;
77854;SDS011;67046;50.088;14.336;2023-03-01T00:38:18;31.00;;;17.10;;
77854;SDS011;67046;50.088;14.336;2023-03-01T00:38:50;30.50;;;17.00;;
77854;SDS011;67046;50.088;14.336;2023-03-01T00:39:22;29.20;;;17.90;;
77854;SDS011;67046;50.088;14.336;2023-03-01T00:39:54;29.10;;;16.60;;
77854;SDS011;67046;50.088;14.336;2023-03-01T00:40:26;30.10;;;17.90;;
77854;SDS011;67046;50.088;14.336;2023-03-01T00:41:10;27.50;;;17.00;;
77854;SDS011;67046;50.088;14.336;2023-03-01T00:41:47;28.70;;;17.10;;
77854;SDS011;67046;50.088;14.336;2023-03-01T00:42:19;28.20;;;18.00;;
77854;SDS011;67046;50.088;14.336;2023-03-01T00:42:51;32.20;;;18.60;;
77854;SDS011;67046;50.088;14.336;2023-03-01T00:43:23;28.30;;;17.00;;
77854;SDS011;67046;50.088;14.336;2023-03-01T00:43:55;30.10;;;18.10;;
77854;SDS011;67046;50.088;14.336;2023-03-01T00:44:27;30.70;;;18.00;;
77854;SDS011;67046;50.088;14.336;2023-03-01T00:45:00;29.30;;;18.10;;
77854;SDS011;67046;50.088;14.336;2023-03-01T00:45:32;33.10;;;18.20;;
77854;SDS011;67046;50.088;14.336;2023-03-01T00:46:05;30.00;;;17.40;;
77854;SDS011;67046;50.088;14.336;2023-03-01T00:46:39;27.40;;;17.00;;
77854;SDS011;67046;50.088;14.336;2023-03-01T00:47:11;31.80;;;17.90;;
77854;SDS011;67046;50.088;14.336;2023-03-01T00:47:43;28.80;;;17.70;;
77854;SDS011;67046;50.088;14.336;2023-03-01T00:48:15;30.50;;;18.60;;
77854;SDS011;67046;50.088;14.336;2023-03-01T00:48:47;33.00;;;17.70;;
77854;SDS011;67046;50.088;14.336;2023-03-01T00:49:20;30.30;;;17.50;;
77854;SDS011;67046;50.088;14.336;2023-03-01T00:49:52;32.20;;;19.40;;
77854;SDS011;67046;50.088;14.336;2023-03-01T00:50:24;30.30;;;18.20;;
77854;SDS011;67046;50.088;14.336;2023-03-01T00:50:56;30.40;;;18.10;;
77854;SDS011;67046;50.088;14.336;2023-03-01T00:51:28;31.70;;;19.20;;
77854;SDS011;67046;50.088;14.336;2023-03-01T00:52:01;29.40;;;18.00;;
77854;SDS011;67046;50.088;14.336;2023-03-01T00:52:33;29.40;;;18.50;;
77854;SDS011;67046;50.088;14.336;2023-03-01T00:53:05;30.00;;;17.90;;
77854;SDS011;67046;50.088;14.336;2023-03-01T00:53:37;30.50;;;18.70;;
77854;SDS011;67046;50.088;14.336;2023-03-01T00:54:10;28.20;;;17.60;;
77854;SDS011;67046;50.088;14.336;2023-03-01T00:54:42;34.20;;;18.40;;
77854;SDS011;67046;50.088;14.336;2023-03-01T00:55:14;33.70;;;18.20;;
77854;SDS011;67046;50.088;14.336;2023-03-01T00:55:46;30.20;;;18.30;;
77854;SDS011;67046;50.088;14.336;2023-03-01T00:56:18;32.00;;;19.40;;
77854;SDS011;67046;50.088;14.336;2023-03-01T00:56:50;30.80;;;18.20;;
77854;SDS011;67046;50.088;14.336;2023-03-01T00:57:22;29.60;;;18.00;;
77854;SDS011;67046;50.088;14.336;2023-03-01T00:57:54;29.50;;;17.70;;
77854;SDS011;67046;50.088;14.336;2023-03-01T00:58:26;33.40;;;18.10;;
77854;SDS011;67046;50.088;14.336;2023-03-01T00:59:30;29.40;;;16.30;;
77854;SDS011;67046;50.088;14.336;2023-03-01T01:00:03;31.20;;;18.00;;
77854;SDS011;67046;50.088;14.336;2023-03-01T01:00:36;31.50;;;17.70;;
77854;SDS011;67046;50.088;14.336;2023-03-01T01:01:15;30.80;;;17.90;;
77854;SDS011;67046;50.088;14.336;2023-03-01T01:01:49;31.80;;;17.60;;
77854;SDS011;67046;50.088;14.336;2023-03-01T01:02:22;32.70;;;17.90;;
77854;SDS011;67046;50.088;14.336;2023-03-01T01:02:54;30.70;;;18.10;;
77854;SDS011;67046;50.088;14.336;2023-03-01T01:03:26;33.20;;;19.30;;
77854;SDS011;67046;50.088;14.336;2023-03-01T01:04:06;31.00;;;18.10;;
77854;SDS011;67046;50.088;14.336;2023-03-01T01:04:40;30.10;;;17.60;;
77854;SDS011;67046;50.088;14.336;2023-03-01T01:05:13;28.00;;;16.70;;
77854;SDS011;67046;50.088;14.336;2023-03-01T01:06:18;30.70;;;16.40;;
77854;SDS011;67046;50.088;14.336;2023-03-01T01:06:52;30.00;;;16.90;;
77854;SDS011;67046;50.088;14.336;2023-03-01T01:07:24;27.50;;;16.50;;
77854;SDS011;67046;50.088;14.336;2023-03-01T01:07:56;31.40;;;17.50;;
77854;SDS011;67046;50.088;14.336;2023-03-01T01:08:28;31.30;;;16.50;;
77854;SDS011;67046;50.088;14.336;2023-03-01T01:09:00;31.30;;;18.30;;
77854;SDS011;67046;50.088;14.336;2023-03-01T01:09:34;28.70;;;17.60;;
77854;SDS011;67046;50.088;14.336;2023-03-01T01:10:06;29.10;;;17.90;;
77854;SDS011;67046;50.088;14.336;2023-03-01T01:10:38;32.00;;;19.00;;
77854;SDS011;67046;50.088;14.336;2023-03-01T01:11:11;29.50;;;17.70;;
77854;SDS011;67046;50.088;14.336;2023-03-01T01:11:47;28.90;;;17.20;;
77854;SDS011;67046;50.088;14.336;2023-03-01T01:12:20;29.60;;;18.70;;
77854;SDS011;67046;50.088;14.336;2023-03-01T01:12:52;32.60;;;18.10;;
77854;SDS011;67046;50.088;14.336;2023-03-01T01:13:24;30.80;;;18.00;;
77854;SDS011;67046;50.088;14.336;2023-03-01T01:13:56;30.90;;;17.90;;
77854;SDS011;67046;50.088;14.336;2023-03-01T01:14:29;30.10;;;18.20;;
77854;SDS011;67046;50.088;14.336;2023-03-01T01:15:01;29.60;;;18.10;;
77854;SDS011;67046;50.088;14.336;2023-03-01T01:15:33;32.20;;;18.30;;
77854;SDS011;67046;50.088;14.336;2023-03-01T01:16:06;29.30;;;17.40;;
77854;SDS011;67046;50.088;14.336;2023-03-01T01:16:39;32.70;;;18.60;;
77854;SDS011;67046;50.088;14.336;2023-03-01T01:17:11;30.30;;;17.50;;
77854;SDS011;67046;50.088;14.336;2023-03-01T01:17:43;29.10;;;17.60;;
77854;SDS011;67046;50.088;14.336;2023-03-01T01:18:15;33.20;;;18.70;;
77854;SDS011;67046;50.088;14.336;2023-03-01T01:18:47;30.10;;;17.10;;
77854;SDS011;67046;50.088;14.336;2023-03-01T01:19:19;30.20;;;18.10;;
77854;SDS011;67046;50.088;14.336;2023-03-01T01:20:23;30.30;;;17.60;;
77854;SDS011;67046;50.088;14.336;2023-03-01T01:20:55;30.00;;;18.40;;
77854;SDS011;67046;50.088;14.336;2023-03-01T01:21:27;29.40;;;17.50;;
77854;SDS011;67046;50.088;14.336;2023-03-01T01:21:59;28.90;;;17.70;;
77854;SDS011;67046;50.088;14.336;2023-03-01T01:22:31;26.60;;;17.70;;
77854;SDS011;67046;50.088;14.336;2023-03-01T01:23:04;28.10;;;17.50;;
77854;SDS011;67046;50.088;14.336;2023-03-01T01:23:38;30.60;;;17.20;;
77854;SDS011;67046;50.088;14.336;2023-03-01T01:24:11;32.10;;;19.30;;
77854;SDS011;67046;50.088;14.336;2023-03-01T01:24:43;33.10;;;18.30;;
77854;SDS011;67046;50.088;14.336;2023-03-01T01:25:15;33.40;;;18.60;;
77854;SDS011;67046;50.088;14.336;2023-03-01T01:25:47;30.70;;;17.20;;
77854;SDS011;67046;50.088;14.336;2023-03-01T01:26:20;34.60;;;18.70;;
77854;SDS011;67046;50.088;14.336;2023-03-01T01:26:57;30.00;;;17.80;;
77854;SDS011;67046;50.088;14.336;2023-03-01T01:27:29;29.80;;;18.30;;
77854;SDS011;67046;50.088;14.336;2023-03-01T01:28:01;30.30;;;18.10;;
77854;SDS011;67046;50.088;14.336;2023-03-01T01:28:34;29.80;;;17.10;;
77854;SDS011;67046;50.088;14.336;2023-03-01T01:29:38;31.30;;;16.90;;
77854;SDS011;67046;50.088;14.336;2023-03-01T01:30:11;26.90;;;17.50;;
77854;SDS011;67046;50.088;14.336;2023-03-01T01:30:44;31.30;;;17.30;;
77854;SDS011;67046;50.088;14.336;2023-03-01T01:31:16;35.90;;;17.70;;
77854;SDS011;67046;50.088;14.336;2023-03-01T01:32:20;26.80;;;15.80;;
77854;SDS011;67046;50.088;14.336;2023-03-01T01:32:52;30.20;;;17.00;;
77854;SDS011;67046;50.088;14.336;2023-03-01T01:33:24;28.00;;;16.80;;
77854;SDS011;67046;50.088;14.336;2023-03-01T01:33:56;33.00;;;18.60;;
77854;SDS011;67046;50.088;14.336;2023-03-01T01:34:29;33.60;;;18.50;;
77854;SDS011;67046;50.088;14.336;2023-03-01T01:35:01;29.00;;;18.10;;
77854;SDS011;67046;50.088;14.336;2023-03-01T01:35:34;31.00;;;17.80;;
77854;SDS011;67046;50.088;14.336;2023-03-01T01:36:06;32.60;;;17.70;;
77854;SDS011;67046;50.088;14.336;2023-03-01T01:36:39;32.10;;;18.00;;
77854;SDS011;67046;50.088;14.336;2023-03-01T01:37:11;28.30;;;17.40;;
77854;SDS011;67046;50.088;14.336;2023-03-01T01:38:15;32.50;;;16.90;;
77854;SDS011;67046;50.088;14.336;2023-03-01T01:38:47;29.70;;;17.20;;
77854;SDS011;67046;50.088;14.336;2023-03-01T01:39:52;29.10;;;16.40;;
77854;SDS011;67046;50.088;14.336;2023-03-01T01:40:24;29.50;;;16.50;;
77854;SDS011;67046;50.088;14.336;2023-03-01T01:40:56;32.60;;;17.40;;
77854;SDS011;67046;50.088;14.336;2023-03-01T01:41:28;32.70;;;17.90;;
77854;SDS011;67046;50.088;14.336;2023-03-01T01:42:01;31.90;;;18.40;;
77854;SDS011;67046;50.088;14.336;2023-03-01T01:42:33;31.30;;;17.90;;
77854;SDS011;67046;50.088;14.336;2023-03-01T01:43:07;29.50;;;17.20;;
77854;SDS011;67046;50.088;14.336;2023-03-01T01:44:08;27.10;;;17.10;;
77854;SDS011;67046;50.088;14.336;2023-03-01T01:44:42;31.80;;;17.00;;
77854;SDS011;67046;50.088;14.336;2023-03-01T01:45:30;32.40;;;19.30;;
77854;SDS011;67046;50.088;14.336;2023-03-01T01:46:28;30.30;;;18.20;;
77854;SDS011;67046;50.088;14.336;2023-03-01T01:47:05;31.70;;;16.90;;
77854;SDS011;67046;50.088;14.336;2023-03-01T01:47:44;31.80;;;18.70;;
77854;SDS011;67046;50.088;14.336;2023-03-01T01:48:21;31.30;;;18.30;;
77854;SDS011;67046;50.088;14.336;2023-03-01T01:48:59;30.10;;;17.90;;
77854;SDS011;67046;50.088;14.336;2023-03-01T01:50:08;32.00;;;18.70;;
77854;SDS011;67046;50.088;14.336;2023-03-01T01:50:58;31.70;;;18.30;;
77854;SDS011;67046;50.088;14.336;2023-03-01T01:51:32;31.80;;;18.80;;
77854;SDS011;67046;50.088;14.336;2023-03-01T01:52:19;30.90;;;18.30;;
77854;SDS011;67046;50.088;14.336;2023-03-01T01:52:55;34.30;;;18.50;;
77854;SDS011;67046;50.088;14.336;2023-03-01T01:53:27;32.60;;;19.40;;
77854;SDS011;67046;50.088;14.336;2023-03-01T01:54:01;32.60;;;18.50;;
77854;SDS011;67046;50.088;14.336;2023-03-01T01:54:37;36.70;;;19.10;;
77854;SDS011;67046;50.088;14.336;2023-03-01T01:55:20;32.10;;;18.80;;
77854;SDS011;67046;50.088;14.336;2023-03-01T01:55:58;33.70;;;18.90;;
77854;SDS011;67046;50.088;14.336;2023-03-01T01:56:32;34.80;;;19.40;;
77854;SDS011;67046;50.088;14.336;2023-03-01T01:57:07;32.50;;;19.80;;
77854;SDS011;67046;50.088;14.336;2023-03-01T01:57:44;29.10;;;17.90;;
77854;SDS011;67046;50.088;14.336;2023-03-01T01:58:19;34.10;;;19.50;;
77854;SDS011;67046;50.088;14.336;2023-03-01T01:58:52;32.10;;;19.00;;
77854;SDS011;67046;50.088;14.336;2023-03-01T01:59:25;32.20;;;18.00;;
77854;SDS011;67046;50.088;14.336;2023-03-01T02:00:00;34.50;;;19.30;;
77854;SDS011;67046;50.088;14.336;2023-03-01T02:00:38;35.30;;;18.60;;
77854;SDS011;67046;50.088;14.336;2023-03-01T02:01:10;33.40;;;19.40;;
77854;SDS011;67046;50.088;14.336;2023-03-01T02:01:43;33.10;;;19.70;;
77854;SDS011;67046;50.088;14.336;2023-03-01T02:02:48;35.50;;;18.50;;
77854;SDS011;67046;50.088;14.336;2023-03-01T02:03:27;34.60;;;18.50;;
77854;SDS011;67046;50.088;14.336;2023-03-01T02:04:04;37.90;;;20.60;;
77854;SDS011;67046;50.088;14.336;2023-03-01T02:04:37;32.50;;;18.50;;
77854;SDS011;67046;50.088;14.336;2023-03-01T02:06:02;33.50;;;18.20;;
77854;SDS011;67046;50.088;14.336;2023-03-01T02:06:39;32.60;;;18.80;;
77854;SDS011;67046;50.088;14.336;2023-03-01T02:07:20;31.20;;;17.20;;
77854;SDS011;67046;50.088;14.336;2023-03-01T02:07:56;31.00;;;17.30;;
77854;SDS011;67046;50.088;14.336;2023-03-01T02:08:30;33.30;;;18.50;;
77854;SDS011;67046;50.088;14.336;2023-03-01T02:09:06;31.90;;;18.40;;
77854;SDS011;67046;50.088;14.336;2023-03-01T02:09:43;32.30;;;18.40;;
77854;SDS011;67046;50.088;14.336;2023-03-01T02:10:18;31.60;;;18.60;;
77854;SDS011;67046;50.088;14.336;2023-03-01T02:10:52;29.60;;;17.90;;
77854;SDS011;67046;50.088;14.336;2023-03-01T02:11:27;33.60;;;18.60;;
77854;SDS011;67046;50.088;14.336;2023-03-01T02:12:02;34.40;;;18.70;;
77854;SDS011;67046;50.088;14.336;2023-03-01T02:12:36;30.00;;;18.20;;
77854;SDS011;67046;50.088;14.336;2023-03-01T02:13:10;31.40;;;18.70;;
77854;SDS011;67046;50.088;14.336;2023-03-01T02:14:14;30.20;;;17.50;;
77854;SDS011;67046;50.088;14.336;2023-03-01T02:14:47;33.60;;;19.70;;
77854;SDS011;67046;50.088;14.336;2023-03-01T02:15:19;31.70;;;17.70;;
77854;SDS011;67046;50.088;14.336;2023-03-01T02:15:51;31.20;;;17.80;;
77854;SDS011;67046;50.088;14.336;2023-03-01T02:16:23;33.90;;;20.10;;
77854;SDS011;67046;50.088;14.336;2023-03-01T02:16:57;32.70;;;18.80;;
77854;SDS011;67046;50.088;14.336;2023-03-01T02:17:29;33.30;;;19.20;;
77854;SDS011;67046;50.088;14.336;2023-03-01T02:18:02;35.40;;;19.10;;
77854;SDS011;67046;50.088;14.336;2023-03-01T02:18:35;34.70;;;20.10;;
77854;SDS011;67046;50.088;14.336;2023-03-01T02:19:12;34.80;;;18.30;;
77854;SDS011;67046;50.088;14.336;2023-03-01T02:21:38;31.60;;;18.00;;
77854;SDS011;67046;50.088;14.336;2023-03-01T02:22:30;35.00;;;18.50;;
77854;SDS011;67046;50.088;14.336;2023-03-01T02:23:03;34.10;;;18.20;;
77854;SDS011;67046;50.088;14.336;2023-03-01T02:23:37;34.40;;;19.60;;
77854;SDS011;67046;50.088;14.336;2023-03-01T02:25:57;30.90;;;16.90;;
77854;SDS011;67046;50.088;14.336;2023-03-01T02:26:37;33.50;;;17.80;;
77854;SDS011;67046;50.088;14.336;2023-03-01T02:27:16;34.00;;;18.50;;
77854;SDS011;67046;50.088;14.336;2023-03-01T02:28:37;32.90;;;18.50;;
77854;SDS011;67046;50.088;14.336;2023-03-01T02:29:11;33.10;;;18.50;;
77854;SDS011;67046;50.088;14.336;2023-03-01T02:29:43;35.50;;;18.40;;
77854;SDS011;67046;50.088;14.336;2023-03-01T02:30:15;34.30;;;18.30;;
77854;SDS011;67046;50.088;14.336;2023-03-01T02:30:48;33.40;;;17.70;;
77854;SDS011;67046;50.088;14.336;2023-03-01T02:31:40;33.40;;;18.70;;
77854;SDS011;67046;50.088;14.336;2023-03-01T02:32:15;32.90;;;19.40;;
77854;SDS011;67046;50.088;14.336;2023-03-01T02:32:56;32.40;;;17.30;;
77854;SDS011;67046;50.088;14.336;2023-03-01T02:33:34;31.90;;;18.10;;
77854;SDS011;67046;50.088;14.336;2023-03-01T02:34:09;28.80;;;16.90;;
77854;SDS011;67046;50.088;14.336;2023-03-01T02:35:02;32.50;;;17.70;;
77854;SDS011;67046;50.088;14.336;2023-03-01T02:35:37;27.20;;;16.60;;
77854;SDS011;67046;50.088;14.336;2023-03-01T02:36:12;31.70;;;17.70;;
77854;SDS011;67046;50.088;14.336;2023-03-01T02:37:04;27.70;;;16.30;;
77854;SDS011;67046;50.088;14.336;2023-03-01T02:38:12;30.30;;;16.30;;
77854;SDS011;67046;50.088;14.336;2023-03-01T02:38:44;28.80;;;16.20;;
77854;SDS011;67046;50.088;14.336;2023-03-01T02:39:20;36.20;;;17.30;;
77854;SDS011;67046;50.088;14.336;2023-03-01T02:39:58;29.80;;;17.90;;
77854;SDS011;67046;50.088;14.336;2023-03-01T02:40:34;30.30;;;18.80;;
77854;SDS011;67046;50.088;14.336;2023-03-01T02:41:10;30.40;;;17.70;;
77854;SDS011;67046;50.088;14.336;2023-03-01T02:41:48;28.30;;;16.80;;
77854;SDS011;67046;50.088;14.336;2023-03-01T02:42:24;33.50;;;18.40;;
77854;SDS011;67046;50.088;14.336;2023-03-01T02:42:59;31.70;;;18.20;;
77854;SDS011;67046;50.088;14.336;2023-03-01T02:43:32;30.50;;;17.80;;
77854;SDS011;67046;50.088;14.336;2023-03-01T02:44:05;29.50;;;17.80;;
77854;SDS011;67046;50.088;14.336;2023-03-01T02:44:37;29.70;;;17.40;;
77854;SDS011;67046;50.088;14.336;2023-03-01T02:45:09;30.60;;;17.40;;
77854;SDS011;67046;50.088;14.336;2023-03-01T02:45:49;31.80;;;19.00;;
77854;SDS011;67046;50.088;14.336;2023-03-01T02:46:23;30.70;;;17.90;;
77854;SDS011;67046;50.088;14.336;2023-03-01T02:46:57;28.70;;;17.80;;
77854;SDS011;67046;50.088;14.336;2023-03-01T02:47:32;35.20;;;18.30;;
77854;SDS011;67046;50.088;14.336;2023-03-01T02:48:04;33.10;;;19.30;;
77854;SDS011;67046;50.088;14.336;2023-03-01T02:48:40;32.50;;;18.10;;
77854;SDS011;67046;50.088;14.336;2023-03-01T02:49:27;34.30;;;18.60;;
77854;SDS011;67046;50.088;14.336;2023-03-01T02:50:02;34.00;;;18.40;;
77854;SDS011;67046;50.088;14.336;2023-03-01T02:51:45;30.70;;;17.00;;
77854;SDS011;67046;50.088;14.336;2023-03-01T02:52:34;28.20;;;16.60;;
77854;SDS011;67046;50.088;14.336;2023-03-01T02:53:19;28.40;;;16.30;;
77854;SDS011;67046;50.088;14.336;2023-03-01T02:54:42;34.30;;;18.00;;
77854;SDS011;67046;50.088;14.336;2023-03-01T02:55:20;29.60;;;16.60;;
77854;SDS011;67046;50.088;14.336;2023-03-01T02:56:25;32.70;;;17.50;;
77854;SDS011;67046;50.088;14.336;2023-03-01T02:56:57;28.70;;;16.40;;
77854;SDS011;67046;50.088;14.336;2023-03-01T02:57:30;38.90;;;17.30;;
77854;SDS011;67046;50.088;14.336;2023-03-01T02:58:04;31.30;;;17.30;;
77854;SDS011;67046;50.088;14.336;2023-03-01T02:58:36;31.00;;;17.90;;
77854;SDS011;67046;50.088;14.336;2023-03-01T02:59:16;34.00;;;18.40;;
77854;SDS011;67046;50.088;14.336;2023-03-01T02:59:51;31.90;;;17.30;;
77854;SDS011;67046;50.088;14.336;2023-03-01T03:00:35;30.90;;;17.10;;
77854;SDS011;67046;50.088;14.336;2023-03-01T03:01:17;30.20;;;17.00;;
77854;SDS011;67046;50.088;14.336;2023-03-01T03:01:50;30.20;;;17.10;;
77854;SDS011;67046;50.088;14.336;2023-03-01T03:02:26;30.70;;;18.20;;
77854;SDS011;67046;50.088;14.336;2023-03-01T03:03:09;31.10;;;16.50;;
77854;SDS011;67046;50.088;14.336;2023-03-01T03:03:45;28.10;;;17.40;;
77854;SDS011;67046;50.088;14.336;2023-03-01T03:04:17;29.60;;;17.80;;
77854;SDS011;67046;50.088;14.336;2023-03-01T03:04:50;33.20;;;18.10;;
77854;SDS011;67046;50.088;14.336;2023-03-01T03:05:23;33.80;;;18.40;;
77854;SDS011;67046;50.088;14.336;2023-03-01T03:05:57;30.80;;;19.10;;
77854;SDS011;67046;50.088;14.336;2023-03-01T03:06:29;32.80;;;18.00;;
77854;SDS011;67046;50.088;14.336;2023-03-01T03:07:01;31.00;;;18.70;;
77854;SDS011;67046;50.088;14.336;2023-03-01T03:07:33;28.80;;;17.60;;
77854;SDS011;67046;50.088;14.336;2023-03-01T03:08:06;32.10;;;18.30;;
77854;SDS011;67046;50.088;14.336;2023-03-01T03:08:39;29.10;;;18.10;;
77854;SDS011;67046;50.088;14.336;2023-03-01T03:09:11;31.10;;;18.40;;
77854;SDS011;67046;50.088;14.336;2023-03-01T03:09:44;31.60;;;18.00;;
77854;SDS011;67046;50.088;14.336;2023-03-01T03:10:51;30.50;;;16.50;;
77854;SDS011;67046;50.088;14.336;2023-03-01T03:11:22;31.10;;;17.00;;
77854;SDS011;67046;50.088;14.336;2023-03-01T03:11:55;31.30;;;17.30;;
77854;SDS011;67046;50.088;14.336;2023-03-01T03:12:27;32.30;;;17.60;;
77854;SDS011;67046;50.088;14.336;2023-03-01T03:13:03;30.80;;;18.10;;
77854;SDS011;67046;50.088;14.336;2023-03-01T03:13:37;30.50;;;16.70;;
77854;SDS011;67046;50.088;14.336;2023-03-01T03:14:19;31.40;;;17.00;;
77854;SDS011;67046;50.088;14.336;2023-03-01T03:15:23;30.10;;;17.00;;
77854;SDS011;67046;50.088;14.336;2023-03-01T03:15:56;31.20;;;17.50;;
77854;SDS011;67046;50.088;14.336;2023-03-01T03:16:28;33.30;;;18.10;;
77854;SDS011;67046;50.088;14.336;2023-03-01T03:17:01;32.90;;;18.90;;
77854;SDS011;67046;50.088;14.336;2023-03-01T03:17:38;33.80;;;18.20;;
77854;SDS011;67046;50.088;14.336;2023-03-01T03:18:12;26.20;;;16.50;;
77854;SDS011;67046;50.088;14.336;2023-03-01T03:18:46;31.70;;;17.80;;
77854;SDS011;67046;50.088;14.336;2023-03-01T03:19:19;34.90;;;18.20;;
77854;SDS011;67046;50.088;14.336;2023-03-01T03:19:51;31.20;;;17.70;;
77854;SDS011;67046;50.088;14.336;2023-03-01T03:20:24;29.30;;;17.80;;
77854;SDS011;67046;50.088;14.336;2023-03-01T03:20:58;33.60;;;18.10;;
77854;SDS011;67046;50.088;14.336;2023-03-01T03:21:33;32.20;;;17.70;;
77854;SDS011;67046;50.088;14.336;2023-03-01T03:22:05;34.00;;;18.60;;
77854;SDS011;67046;50.088;14.336;2023-03-01T03:22:40;28.70;;;17.70;;
77854;SDS011;67046;50.088;14.336;2023-03-01T03:23:12;31.10;;;17.70;;
77854;SDS011;67046;50.088;14.336;2023-03-01T03:23:45;32.00;;;18.10;;
77854;SDS011;67046;50.088;14.336;2023-03-01T03:24:17;29.60;;;16.90;;
77854;SDS011;67046;50.088;14.336;2023-03-01T03:24:49;29.00;;;17.90;;
77854;SDS011;67046;50.088;14.336;2023-03-01T03:25:22;32.50;;;17.10;;
77854;SDS011;67046;50.088;14.336;2023-03-01T03:25:54;29.80;;;17.00;;
77854;SDS011;67046;50.088;14.336;2023-03-01T03:26:26;27.80;;;16.80;;
77854;SDS011;67046;50.088;14.336;2023-03-01T03:26:58;30.90;;;17.50;;
77854;SDS011;67046;50.088;14.336;2023-03-01T03:27:30;29.80;;;17.00;;
77854;SDS011;67046;50.088;14.336;2023-03-01T03:28:03;31.10;;;18.00;;
77854;SDS011;67046;50.088;14.336;2023-03-01T03:28:40;27.90;;;16.80;;
77854;SDS011;67046;50.088;14.336;2023-03-01T03:29:12;30.30;;;18.30;;
77854;SDS011;67046;50.088;14.336;2023-03-01T03:29:45;32.00;;;19.00;;
77854;SDS011;67046;50.088;14.336;2023-03-01T03:30:18;29.60;;;17.80;;
77854;SDS011;67046;50.088;14.336;2023-03-01T03:30:51;32.80;;;18.30;;
77854;SDS011;67046;50.088;14.336;2023-03-01T03:31:23;31.50;;;17.90;;
77854;SDS011;67046;50.088;14.336;2023-03-01T03:31:55;30.40;;;18.10;;
77854;SDS011;67046;50.088;14.336;2023-03-01T03:32:27;32.40;;;17.60;;
77854;SDS011;67046;50.088;14.336;2023-03-01T03:32:59;30.90;;;17.60;;
77854;SDS011;67046;50.088;14.336;2023-03-01T03:33:31;31.40;;;17.70;;
77854;SDS011;67046;50.088;14.336;2023-03-01T03:34:35;28.80;;;16.60;;